Don Mueang International Airport
VTBD : now visible

Airfield :











YOU CAN JOIN US ON...

 
LOGIN :

Register | Disclaimer

   EN    FR    IT 

 









Legend :    VFR   Marginal VFR   IFR   Intensive IFR   Very Intensive IFR
Visi :
Ceiling :
>= 8 km
>= 3000ft
5 to 8 km
1000 to 3000 ft
1500m to 5 km
500 to 1000 ft
800 to 1500m
200 to 500 ft
< 800m
< 200 ft
Symbols :   Thunderstorms  Fog  Heavy snow  Heavy precipitations  Wind > 20 kt






- Airport Elevation : 9 ft
- IATA code : DMK


VTBD - Don Mueang International

CURRENT METAR :
  • 121800Z 11006KT 9999 FEW040 27/22 Q1012 NOSIG

EXPIRED METARs :
  • 121700Z 11007KT 9999 FEW040 28/22 Q1012 NOSIG
  • 121630Z 11008KT 9999 FEW040 28/22 Q1012 NOSIG
  • 121600Z 11008KT 9999 FEW040 29/22 Q1012 NOSIG
  • 121530Z 18002KT 9999 FEW040 28/22 Q1011 NOSIG

TAF TAF VTBD
Valid from the 12 at 18:00 until the 14 at 00:00 UTC


121700Z 1218/1324 13005KT 9999 FEW040
BECMG 1302/1304 05008KT
BECMG 1316/1318 33005KT



MET'MAP, your aeronautical weather chart ! - Copyright ORBIFLY December 2007 - Disclaimer

ORBIFLY MET'MAP TEAM :

Programming & Development : Alexandra Zaïnal
Concept & Development : Baudouin d'Aumeries
Co-Development & Prog : Marc-Olivier Méhu
Technical & hardware support : Manuel Goepfert

Contact : metmap@orbifly.com




SOURCES & CREDITS :

   NOAA       Earth
Advisory